Time;durP1;ratioP1;P1;durP2;ratioP2;P2;SDS_P1;SDS_P2;PMS_P1;PMS_P2;Temp;Humidity;BMP_temperature;BMP_pressure;BME280_temperature;BME280_humidity;BME280_pressure;Samples;Min_cycle;Max_cycle;Signal;HPM_P1;HPM_P2
2023/09/07 00:01:39;;;;;;;19.23;14.05;;;;;;;;;;5067966;28;20025;-61
2023/09/07 00:04:06;;;;;;;20.55;13.35;;;;;;;;;;5075840;28;20104;-57
2023/09/07 00:06:32;;;;;;;20.08;14.10;;;;;;;;;;5075988;28;20489;-62
2023/09/07 00:08:58;;;;;;;17.90;13.75;;;;;;;;;;5076338;28;20047;-60
2023/09/07 00:11:24;;;;;;;18.83;13.98;;;;;;;;;;5058384;28;20029;-58
2023/09/07 00:13:50;;;;;;;18.67;12.77;;;;;;;;;;5076209;28;20027;-61
2023/09/07 00:16:16;;;;;;;18.23;13.27;;;;;;;;;;5057664;28;20497;-61
2023/09/07 00:18:42;;;;;;;21.45;13.38;;;;;;;;;;5076335;28;20060;-61
2023/09/07 00:21:08;;;;;;;18.30;13.00;;;;;;;;;;5076370;28;20129;-63
2023/09/07 00:23:34;;;;;;;19.13;13.35;;;;;;;;;;5058185;28;20587;-59
2023/09/07 00:26:00;;;;;;;18.08;13.15;;;;;;;;;;5075217;28;20056;-61
2023/09/07 00:28:26;;;;;;;19.15;13.00;;;;;;;;;;5076096;28;20029;-58
2023/09/07 00:30:52;;;;;;;18.15;12.65;;;;;;;;;;5076178;28;20039;-59
2023/09/07 00:33:18;;;;;;;19.48;13.27;;;;;;;;;;5076011;28;20016;-57
2023/09/07 00:35:44;;;;;;;25.75;13.10;;;;;;;;;;5075148;28;20021;-61
2023/09/07 00:38:11;;;;;;;19.92;13.10;;;;;;;;;;5076088;28;20071;-61
2023/09/07 00:40:37;;;;;;;19.95;13.27;;;;;;;;;;5062821;28;20492;-60
2023/09/07 00:43:04;;;;;;;18.80;13.10;;;;;;;;;;5051713;28;20139;-60
2023/09/07 00:45:30;;;;;;;21.33;13.63;;;;;;;;;;5042178;28;20393;-60
2023/09/07 00:47:56;;;;;;;19.30;12.85;;;;;;;;;;5052619;28;20064;-61
2023/09/07 00:50:22;;;;;;;17.55;12.75;;;;;;;;;;5052897;28;20048;-60
2023/09/07 00:52:48;;;;;;;18.63;13.48;;;;;;;;;;5052699;28;20521;-61
2023/09/07 00:55:14;;;;;;;17.80;12.60;;;;;;;;;;5051902;28;20033;-58
2023/09/07 00:57:42;;;;;;;18.55;13.25;;;;;;;;;;5052041;28;20497;-57
2023/09/07 01:00:08;;;;;;;18.63;13.23;;;;;;;;;;5052568;28;20104;-57
2023/09/07 01:02:35;;;;;;;17.80;12.45;;;;;;;;;;5052696;28;20271;-61
2023/09/07 01:05:05;;;;;;;18.15;13.15;;;;;;;;;;5051751;28;20029;-61
2023/09/07 01:07:43;;;;;;;19.75;12.80;;;;;;;;;;5034493;28;20154;-61
2023/09/07 01:10:09;;;;;;;19.52;13.10;;;;;;;;;;5034522;28;20027;-59
2023/09/07 01:12:35;;;;;;;18.60;13.05;;;;;;;;;;5052404;28;20175;-56
2023/09/07 01:15:04;;;;;;;19.85;13.63;;;;;;;;;;5052427;28;20466;-56
2023/09/07 01:17:31;;;;;;;20.15;13.68;;;;;;;;;;5055440;28;20029;-57
2023/09/07 01:19:59;;;;;;;19.80;13.80;;;;;;;;;;5053788;28;20035;-59
2023/09/07 01:22:25;;;;;;;22.23;14.23;;;;;;;;;;5052630;28;20021;-59
2023/09/07 01:24:54;;;;;;;18.38;13.38;;;;;;;;;;5033431;28;20025;-60
2023/09/07 01:27:20;;;;;;;18.23;13.02;;;;;;;;;;5052171;28;20017;-58
2023/09/07 01:29:46;;;;;;;17.90;12.75;;;;;;;;;;5052007;28;20029;-61
2023/09/07 01:32:13;;;;;;;19.08;12.90;;;;;;;;;;5051921;28;20101;-54
2023/09/07 01:34:39;;;;;;;20.02;12.90;;;;;;;;;;5051166;28;20028;-60
2023/09/07 01:37:05;;;;;;;19.63;13.35;;;;;;;;;;5051851;28;20025;-61
2023/09/07 01:39:31;;;;;;;18.98;13.77;;;;;;;;;;5051895;28;20107;-59
2023/09/07 01:41:57;;;;;;;20.20;14.43;;;;;;;;;;5051749;28;20025;-58
2023/09/07 01:44:23;;;;;;;20.13;13.27;;;;;;;;;;5050887;28;20029;-58
2023/09/07 01:46:49;;;;;;;17.58;13.38;;;;;;;;;;5051688;28;20529;-60
2023/09/07 01:49:15;;;;;;;19.52;13.40;;;;;;;;;;5033781;28;20025;-61
2023/09/07 01:51:41;;;;;;;18.73;13.27;;;;;;;;;;5051724;28;20487;-61
2023/09/07 01:54:09;;;;;;;19.70;13.30;;;;;;;;;;5050681;28;20083;-59
2023/09/07 01:56:35;;;;;;;20.88;13.45;;;;;;;;;;5051434;28;20029;-61
2023/09/07 01:59:01;;;;;;;17.52;13.23;;;;;;;;;;5051460;28;20033;-61
2023/09/07 02:01:31;;;;;;;17.90;13.07;;;;;;;;;;5051375;28;20044;-61
2023/09/07 02:03:57;;;;;;;21.73;13.27;;;;;;;;;;5050698;28;20021;-59
2023/09/07 02:06:23;;;;;;;19.63;13.68;;;;;;;;;;5050839;28;20546;-61
2023/09/07 02:08:49;;;;;;;20.10;14.10;;;;;;;;;;5051215;28;20029;-61
2023/09/07 02:11:15;;;;;;;19.75;13.38;;;;;;;;;;5051211;28;20019;-61
2023/09/07 02:13:46;;;;;;;19.23;13.73;;;;;;;;;;5033595;28;20086;-60
2023/09/07 02:16:12;;;;;;;19.88;13.70;;;;;;;;;;5050738;28;20369;-57
2023/09/07 02:18:43;;;;;;;19.80;13.52;;;;;;;;;;5051234;28;20068;-60
2023/09/07 02:21:09;;;;;;;17.77;13.80;;;;;;;;;;5051519;28;20481;-59
2023/09/07 02:23:39;;;;;;;18.48;13.60;;;;;;;;;;5051246;28;20044;-59
2023/09/07 02:26:05;;;;;;;21.35;13.73;;;;;;;;;;5050117;28;20044;-61
2023/09/07 02:28:31;;;;;;;18.02;13.05;;;;;;;;;;5033178;28;20469;-58
2023/09/07 02:31:04;;;;;;;18.10;13.25;;;;;;;;;;5032989;28;20031;-59
2023/09/07 02:33:30;;;;;;;17.92;13.35;;;;;;;;;;5050765;28;20025;-61
2023/09/07 02:35:58;;;;;;;27.50;13.35;;;;;;;;;;5050023;28;20039;-62
2023/09/07 02:38:24;;;;;;;20.10;13.68;;;;;;;;;;5032858;28;20152;-61
2023/09/07 02:40:50;;;;;;;22.58;13.65;;;;;;;;;;5050612;28;20163;-60
2023/09/07 02:43:16;;;;;;;19.55;13.02;;;;;;;;;;5050549;28;20040;-60
2023/09/07 02:45:42;;;;;;;18.25;13.48;;;;;;;;;;5049649;28;20033;-61
2023/09/07 02:48:08;;;;;;;26.02;14.00;;;;;;;;;;5050625;28;20029;-59
2023/09/07 02:50:35;;;;;;;17.92;13.18;;;;;;;;;;5050403;28;20029;-59
2023/09/07 02:53:01;;;;;;;17.92;13.30;;;;;;;;;;5032519;28;20041;-58
2023/09/07 02:55:28;;;;;;;19.23;13.85;;;;;;;;;;5049720;28;20060;-61
2023/09/07 02:57:55;;;;;;;18.13;13.30;;;;;;;;;;5050153;28;20033;-58
2023/09/07 03:00:21;;;;;;;19.77;13.43;;;;;;;;;;5050280;28;20107;-58
2023/09/07 03:02:48;;;;;;;19.73;13.35;;;;;;;;;;5050439;28;20386;-62
2023/09/07 03:05:14;;;;;;;19.45;13.27;;;;;;;;;;5049084;28;20086;-60
2023/09/07 03:07:40;;;;;;;18.38;13.18;;;;;;;;;;5050147;28;20017;-61
2023/09/07 03:10:06;;;;;;;18.50;13.57;;;;;;;;;;5032221;28;20029;-61
2023/09/07 03:12:32;;;;;;;20.45;13.48;;;;;;;;;;5050188;28;20051;-61
2023/09/07 03:14:58;;;;;;;19.98;15.02;;;;;;;;;;5031479;28;20486;-61
2023/09/07 03:17:24;;;;;;;20.98;15.20;;;;;;;;;;5049840;28;20033;-61
2023/09/07 03:19:50;;;;;;;20.50;13.98;;;;;;;;;;5049984;28;20033;-61
2023/09/07 03:22:16;;;;;;;21.75;15.10;;;;;;;;;;5049982;28;20188;-60
2023/09/07 03:24:42;;;;;;;19.33;13.52;;;;;;;;;;5049090;28;20472;-61
2023/09/07 03:27:10;;;;;;;19.20;13.65;;;;;;;;;;5051807;28;20031;-56
2023/09/07 03:29:36;;;;;;;18.95;13.35;;;;;;;;;;5032134;28;20044;-57
2023/09/07 03:32:03;;;;;;;19.10;13.60;;;;;;;;;;5050409;28;20076;-60
2023/09/07 03:34:29;;;;;;;21.45;13.73;;;;;;;;;;5031492;28;20579;-61
2023/09/07 03:36:55;;;;;;;20.30;13.38;;;;;;;;;;5049862;28;20117;-60
2023/09/07 03:39:22;;;;;;;20.50;14.40;;;;;;;;;;5049733;28;20064;-62
2023/09/07 03:41:48;;;;;;;20.73;14.38;;;;;;;;;;5031795;28;20044;-61
2023/09/07 03:44:14;;;;;;;20.30;14.18;;;;;;;;;;5031246;28;20463;-60
2023/09/07 03:46:40;;;;;;;23.27;14.05;;;;;;;;;;5049629;28;20077;-61
2023/09/07 03:49:06;;;;;;;20.77;14.00;;;;;;;;;;5054115;28;20126;-58
2023/09/07 03:51:32;;;;;;;24.92;14.85;;;;;;;;;;5059099;28;20106;-61
2023/09/07 03:53:59;;;;;;;19.73;14.38;;;;;;;;;;5069098;28;20021;-61
2023/09/07 03:56:25;;;;;;;20.42;14.27;;;;;;;;;;5069294;28;20389;-58
2023/09/07 03:58:51;;;;;;;18.95;14.40;;;;;;;;;;5069772;28;20029;-55
2023/09/07 04:01:17;;;;;;;20.23;14.18;;;;;;;;;;5069548;28;20074;-59
2023/09/07 04:03:43;;;;;;;21.25;15.13;;;;;;;;;;5069492;28;20111;-58
2023/09/07 04:06:09;;;;;;;20.27;14.40;;;;;;;;;;5068811;28;20024;-61
2023/09/07 04:08:35;;;;;;;20.17;15.02;;;;;;;;;;5069639;28;20024;-60
2023/09/07 04:11:05;;;;;;;20.30;14.88;;;;;;;;;;5069612;28;20096;-58
2023/09/07 04:13:31;;;;;;;19.73;14.50;;;;;;;;;;5069693;28;20115;-58
2023/09/07 04:15:57;;;;;;;20.80;14.52;;;;;;;;;;5050273;28;20038;-61
2023/09/07 04:18:23;;;;;;;20.98;14.63;;;;;;;;;;5062664;28;20031;-57
2023/09/07 04:20:49;;;;;;;22.52;14.00;;;;;;;;;;5064995;28;20025;-61
2023/09/07 04:23:15;;;;;;;20.13;15.05;;;;;;;;;;5055307;28;20484;-61
2023/09/07 04:25:41;;;;;;;21.55;15.30;;;;;;;;;;5054256;28;20025;-58
2023/09/07 04:28:07;;;;;;;30.92;16.23;;;;;;;;;;5073026;28;20099;-61
2023/09/07 04:30:34;;;;;;;21.27;14.52;;;;;;;;;;5055128;28;20038;-61
2023/09/07 04:32:59;;;;;;;20.63;14.55;;;;;;;;;;5072863;28;20031;-62
2023/09/07 04:35:32;;;;;;;20.15;14.90;;;;;;;;;;5054250;28;20032;-61
2023/09/07 04:37:59;;;;;;;21.70;14.93;;;;;;;;;;5072956;28;20123;-61
2023/09/07 04:40:25;;;;;;;20.95;15.05;;;;;;;;;;5055189;28;20392;-60
2023/09/07 04:42:51;;;;;;;26.30;15.20;;;;;;;;;;5073006;28;20634;-59
2023/09/07 04:45:17;;;;;;;21.85;14.43;;;;;;;;;;5072050;28;20075;-59
2023/09/07 04:47:43;;;;;;;20.75;14.77;;;;;;;;;;5054752;28;20020;-62
2023/09/07 04:50:09;;;;;;;22.27;15.35;;;;;;;;;;5072764;28;20469;-63
2023/09/07 04:52:36;;;;;;;22.98;15.40;;;;;;;;;;5054845;28;20508;-62
2023/09/07 04:55:02;;;;;;;21.67;15.35;;;;;;;;;;5071940;28;20103;-61
2023/09/07 04:57:29;;;;;;;21.02;15.30;;;;;;;;;;5072456;28;20097;-62
2023/09/07 04:59:55;;;;;;;21.95;15.65;;;;;;;;;;5072440;28;20040;-60
2023/09/07 05:02:21;;;;;;;20.63;15.77;;;;;;;;;;5072371;28;20025;-62
2023/09/07 05:04:47;;;;;;;23.58;15.10;;;;;;;;;;5071738;28;20024;-61
2023/09/07 05:07:13;;;;;;;20.38;14.65;;;;;;;;;;5072264;28;20056;-58
2023/09/07 05:09:39;;;;;;;24.60;15.77;;;;;;;;;;5054284;28;20484;-61
2023/09/07 05:12:05;;;;;;;21.77;16.38;;;;;;;;;;5072081;28;20024;-62
2023/09/07 05:14:31;;;;;;;21.88;15.05;;;;;;;;;;5071579;28;20469;-59
2023/09/07 05:16:57;;;;;;;22.88;16.42;;;;;;;;;;5054068;28;20017;-61
2023/09/07 05:19:23;;;;;;;21.13;16.15;;;;;;;;;;5054084;28;20105;-61
2023/09/07 05:21:49;;;;;;;22.67;16.25;;;;;;;;;;5072098;28;20037;-61
2023/09/07 05:24:15;;;;;;;22.90;15.90;;;;;;;;;;5053709;28;20027;-60
2023/09/07 05:26:44;;;;;;;25.20;15.38;;;;;;;;;;5071922;28;20038;-60
2023/09/07 05:29:11;;;;;;;20.92;14.68;;;;;;;;;;5019997;28;20087;-60
2023/09/07 05:31:37;;;;;;;23.90;17.48;;;;;;;;;;5014388;28;20026;-60
2023/09/07 05:34:03;;;;;;;22.67;15.60;;;;;;;;;;5036613;28;20540;-59
2023/09/07 05:36:29;;;;;;;24.17;15.80;;;;;;;;;;5037250;28;20036;-55
2023/09/07 05:38:55;;;;;;;21.88;15.07;;;;;;;;;;5032291;28;20028;-59
2023/09/07 05:41:21;;;;;;;23.58;15.27;;;;;;;;;;5014016;28;20524;-59
2023/09/07 05:43:48;;;;;;;21.35;15.20;;;;;;;;;;5031577;28;20029;-60
2023/09/07 05:46:14;;;;;;;23.80;16.08;;;;;;;;;;5030578;28;20072;-59
2023/09/07 05:48:40;;;;;;;19.95;14.30;;;;;;;;;;5031269;28;20025;-62
2023/09/07 05:51:07;;;;;;;21.38;14.07;;;;;;;;;;5031327;28;20033;-61
2023/09/07 05:53:33;;;;;;;20.17;14.82;;;;;;;;;;5031441;28;20032;-61
2023/09/07 05:58:40;;;;;;;22.00;15.85;;;;;;;;;;5066442;28;20392;-55
2023/09/07 06:01:06;;;;;;;20.30;14.57;;;;;;;;;;5063415;28;20032;-55
2023/09/07 06:03:34;;;;;;;24.35;15.93;;;;;;;;;;5071583;28;20078;-55
2023/09/07 06:06:00;;;;;;;20.02;14.13;;;;;;;;;;5071133;28;20118;-57
2023/09/07 06:08:26;;;;;;;22.73;14.75;;;;;;;;;;5053078;28;20029;-55
2023/09/07 06:10:53;;;;;;;19.70;14.27;;;;;;;;;;5048363;28;20021;-53
2023/09/07 06:13:19;;;;;;;21.02;14.13;;;;;;;;;;5036830;28;20028;-56
2023/09/07 06:15:46;;;;;;;19.85;14.77;;;;;;;;;;5062490;28;20103;-56
2023/09/07 06:18:12;;;;;;;23.30;15.82;;;;;;;;;;5060164;28;20024;-57
2023/09/07 06:20:38;;;;;;;20.85;15.65;;;;;;;;;;5061558;28;20141;-55
2023/09/07 06:23:04;;;;;;;21.20;15.15;;;;;;;;;;5033417;28;20533;-57
2023/09/07 06:25:30;;;;;;;21.02;15.02;;;;;;;;;;5046570;28;20029;-57
2023/09/07 06:27:56;;;;;;;19.60;15.15;;;;;;;;;;5061627;28;20025;-55
2023/09/07 06:30:22;;;;;;;20.95;14.60;;;;;;;;;;5059617;28;20029;-57
2023/09/07 06:32:50;;;;;;;22.08;15.88;;;;;;;;;;5050819;28;20365;-55
2023/09/07 06:35:18;;;;;;;22.58;14.93;;;;;;;;;;5033866;28;20509;-56
2023/09/07 06:37:44;;;;;;;19.55;14.77;;;;;;;;;;5013124;28;20033;-54
2023/09/07 06:40:10;;;;;;;20.40;15.15;;;;;;;;;;5030511;28;20025;-55
2023/09/07 06:42:37;;;;;;;20.42;15.07;;;;;;;;;;5037327;28;20039;-57
2023/09/07 06:45:03;;;;;;;22.35;14.45;;;;;;;;;;5050510;28;20044;-53
2023/09/07 06:47:29;;;;;;;18.73;14.70;;;;;;;;;;5050767;28;20098;-57
2023/09/07 06:49:55;;;;;;;20.13;14.55;;;;;;;;;;5051028;28;20039;-60
2023/09/07 06:52:21;;;;;;;22.02;15.43;;;;;;;;;;5033025;28;20021;-57
2023/09/07 06:54:47;;;;;;;20.13;15.30;;;;;;;;;;5050309;28;20029;-57
2023/09/07 06:57:13;;;;;;;20.08;15.65;;;;;;;;;;5050718;28;20132;-56
2023/09/07 06:59:39;;;;;;;21.65;15.48;;;;;;;;;;5027200;28;20482;-56
2023/09/07 07:02:05;;;;;;;21.50;15.18;;;;;;;;;;5031188;28;20065;-58
2023/09/07 07:04:31;;;;;;;23.77;16.02;;;;;;;;;;5030704;28;20033;-55
2023/09/07 07:06:57;;;;;;;19.67;14.68;;;;;;;;;;5031431;28;20026;-57
2023/09/07 07:09:23;;;;;;;19.95;15.77;;;;;;;;;;5031313;28;20029;-55
2023/09/07 07:11:49;;;;;;;20.65;15.13;;;;;;;;;;5031442;28;20056;-56
2023/09/07 07:14:15;;;;;;;22.08;15.18;;;;;;;;;;5012475;28;20025;-57
2023/09/07 07:16:41;;;;;;;21.70;13.98;;;;;;;;;;5030859;28;20029;-52
2023/09/07 07:19:07;;;;;;;25.45;16.60;;;;;;;;;;5030776;28;20030;-56
2023/09/07 07:21:33;;;;;;;24.40;15.57;;;;;;;;;;5013064;28;20112;-57
2023/09/07 07:23:59;;;;;;;21.42;15.63;;;;;;;;;;5012654;28;20052;-54
2023/09/07 07:26:25;;;;;;;25.10;15.45;;;;;;;;;;5030380;28;20046;-60
2023/09/07 07:28:51;;;;;;;20.25;15.07;;;;;;;;;;5013197;28;20083;-52
2023/09/07 07:31:17;;;;;;;21.02;15.50;;;;;;;;;;5030807;28;20070;-52
2023/09/07 07:33:43;;;;;;;20.38;15.18;;;;;;;;;;5030566;28;20437;-55
2023/09/07 07:36:09;;;;;;;19.20;15.60;;;;;;;;;;5029893;28;20047;-54
2023/09/07 07:38:35;;;;;;;20.73;15.35;;;;;;;;;;5030797;28;20104;-55
2023/09/07 07:41:01;;;;;;;21.33;14.95;;;;;;;;;;5030556;28;20115;-55
2023/09/07 07:43:27;;;;;;;19.42;14.90;;;;;;;;;;5012598;28;20396;-54
2023/09/07 07:45:54;;;;;;;19.08;14.68;;;;;;;;;;5029596;28;20025;-53
2023/09/07 07:48:20;;;;;;;20.88;15.13;;;;;;;;;;5030194;28;20108;-50
2023/09/07 07:50:46;;;;;;;21.52;14.88;;;;;;;;;;5030956;28;20033;-47
2023/09/07 07:53:13;;;;;;;21.38;15.50;;;;;;;;;;5015680;28;20021;-46
2023/09/07 07:55:40;;;;;;;21.00;15.40;;;;;;;;;;5015934;28;20025;-52
2023/09/07 07:58:10;;;;;;;19.10;14.82;;;;;;;;;;5016314;28;20470;-52
2023/09/07 08:00:40;;;;;;;21.55;15.60;;;;;;;;;;5034851;28;20025;-55
2023/09/07 08:03:06;;;;;;;20.90;15.45;;;;;;;;;;5016896;28;20029;-55
2023/09/07 08:05:33;;;;;;;19.38;14.77;;;;;;;;;;5015967;28;20624;-56
2023/09/07 08:08:00;;;;;;;21.02;15.82;;;;;;;;;;5034430;28;20040;-51
2023/09/07 08:10:26;;;;;;;19.73;14.95;;;;;;;;;;5016149;28;20030;-53
2023/09/07 08:12:56;;;;;;;19.25;14.63;;;;;;;;;;5033892;28;20024;-54
2023/09/07 08:15:22;;;;;;;21.15;16.52;;;;;;;;;;5015158;28;20030;-55
2023/09/07 08:17:49;;;;;;;21.17;15.50;;;;;;;;;;5060250;28;20510;-55
2023/09/07 08:20:16;;;;;;;22.15;15.30;;;;;;;;;;5065268;28;20296;-54
2023/09/07 08:22:42;;;;;;;23.38;15.70;;;;;;;;;;5055836;28;20048;-51
2023/09/07 08:25:08;;;;;;;19.83;14.98;;;;;;;;;;5070921;28;20089;-54
2023/09/07 08:27:34;;;;;;;23.05;15.68;;;;;;;;;;5034207;28;20018;-58
2023/09/07 08:30:00;;;;;;;22.38;15.88;;;;;;;;;;5032129;28;20390;-57
2023/09/07 08:32:26;;;;;;;20.67;15.75;;;;;;;;;;5032188;28;20100;-55
2023/09/07 08:34:56;;;;;;;19.98;15.30;;;;;;;;;;5031415;28;20547;-53
2023/09/07 08:37:22;;;;;;;19.25;15.10;;;;;;;;;;5032635;28;20022;-53
2023/09/07 08:39:48;;;;;;;20.67;15.50;;;;;;;;;;5015336;28;20537;-56
2023/09/07 08:42:14;;;;;;;19.25;15.05;;;;;;;;;;5015197;28;20237;-54
2023/09/07 08:44:42;;;;;;;18.98;14.88;;;;;;;;;;5033037;28;20172;-51
2023/09/07 08:47:08;;;;;;;19.17;14.80;;;;;;;;;;5033909;28;20124;-54
2023/09/07 08:49:35;;;;;;;18.55;15.07;;;;;;;;;;5033595;28;20072;-52
2023/09/07 08:52:04;;;;;;;22.77;15.75;;;;;;;;;;5033416;28;20025;-52
2023/09/07 08:54:30;;;;;;;18.88;15.35;;;;;;;;;;5032549;28;20048;-53
2023/09/07 08:56:57;;;;;;;19.70;15.55;;;;;;;;;;5033098;28;20485;-57
2023/09/07 08:59:23;;;;;;;21.73;16.30;;;;;;;;;;5033119;28;20026;-55
2023/09/07 09:01:49;;;;;;;22.27;15.45;;;;;;;;;;5033089;28;20029;-55
2023/09/07 09:04:16;;;;;;;19.35;15.35;;;;;;;;;;5031465;28;20318;-56
2023/09/07 09:06:41;;;;;;;22.35;16.30;;;;;;;;;;5033157;28;20025;-52
2023/09/07 09:09:07;;;;;;;20.40;15.77;;;;;;;;;;5033346;28;20032;-53
2023/09/07 09:11:34;;;;;;;18.25;15.23;;;;;;;;;;5033305;28;20402;-55
2023/09/07 09:13:59;;;;;;;23.30;15.07;;;;;;;;;;5032915;28;20079;-53
2023/09/07 09:16:25;;;;;;;20.88;15.63;;;;;;;;;;5033228;28;20433;-54
2023/09/07 09:18:56;;;;;;;20.58;16.08;;;;;;;;;;5037829;28;20060;-52
2023/09/07 09:21:23;;;;;;;18.08;15.15;;;;;;;;;;5035961;28;20113;-53
2023/09/07 09:23:50;;;;;;;20.02;15.10;;;;;;;;;;5033632;28;20025;-57
2023/09/07 09:26:16;;;;;;;18.35;15.18;;;;;;;;;;5014596;28;20037;-53
2023/09/07 09:28:44;;;;;;;20.02;15.32;;;;;;;;;;5032877;28;20025;-55
2023/09/07 09:31:12;;;;;;;18.85;15.15;;;;;;;;;;5032732;28;20085;-54
2023/09/07 09:33:39;;;;;;;20.37;15.20;;;;;;;;;;5032937;28;20415;-52
2023/09/07 09:36:06;;;;;;;19.30;15.20;;;;;;;;;;5032265;28;20276;-55
2023/09/07 09:38:32;;;;;;;18.73;14.52;;;;;;;;;;5033334;28;20034;-52
2023/09/07 09:40:58;;;;;;;22.55;15.63;;;;;;;;;;5032873;28;20101;-53
2023/09/07 09:43:25;;;;;;;20.98;15.27;;;;;;;;;;5032626;28;20033;-52
2023/09/07 09:45:52;;;;;;;18.52;14.88;;;;;;;;;;5031931;28;20115;-54
2023/09/07 09:48:20;;;;;;;20.48;15.23;;;;;;;;;;5013510;28;20021;-58
2023/09/07 09:50:49;;;;;;;20.55;15.35;;;;;;;;;;5032630;28;20018;-54
2023/09/07 09:53:20;;;;;;;19.30;14.90;;;;;;;;;;5038443;28;20033;-49
2023/09/07 09:55:49;;;;;;;18.83;15.30;;;;;;;;;;5049974;28;20041;-51
2023/09/07 09:58:16;;;;;;;20.20;16.08;;;;;;;;;;5064304;28;20041;-54
2023/09/07 10:00:47;;;;;;;19.35;15.30;;;;;;;;;;5071535;28;20435;-54
2023/09/07 10:03:14;;;;;;;21.00;15.60;;;;;;;;;;5071398;28;20036;-56
2023/09/07 10:05:40;;;;;;;17.58;15.35;;;;;;;;;;5071669;28;20024;-56
2023/09/07 10:08:11;;;;;;;17.83;15.57;;;;;;;;;;5072108;28;20025;-54
2023/09/07 10:10:38;;;;;;;17.85;15.07;;;;;;;;;;5072065;28;20056;-57
2023/09/07 10:13:04;;;;;;;20.75;15.18;;;;;;;;;;5072053;28;20052;-55
2023/09/07 10:15:31;;;;;;;18.17;15.93;;;;;;;;;;5071022;28;20036;-56
2023/09/07 10:18:24;;;;;;;19.23;15.63;;;;;;;;;;5071771;28;20028;-55
2023/09/07 10:20:50;;;;;;;18.75;16.38;;;;;;;;;;5068038;28;20496;-57
2023/09/07 10:23:16;;;;;;;18.25;16.10;;;;;;;;;;5071784;28;20374;-57
2023/09/07 10:25:42;;;;;;;20.45;16.40;;;;;;;;;;5070333;28;20422;-53
2023/09/07 10:28:20;;;;;;;19.77;16.67;;;;;;;;;;5043221;28;20048;-54
2023/09/07 10:30:58;;;;;;;20.73;16.45;;;;;;;;;;5013446;28;20017;-58
2023/09/07 10:33:24;;;;;;;21.07;16.10;;;;;;;;;;5031654;28;20039;-58
2023/09/07 10:35:50;;;;;;;19.58;16.30;;;;;;;;;;5014907;28;20092;-58
2023/09/07 10:38:16;;;;;;;19.88;15.90;;;;;;;;;;5031687;28;20033;-57
2023/09/07 10:40:45;;;;;;;19.00;15.90;;;;;;;;;;5031022;28;20040;-55
2023/09/07 10:43:11;;;;;;;23.67;16.55;;;;;;;;;;5031263;28;20048;-56
2023/09/07 10:45:37;;;;;;;21.15;17.00;;;;;;;;;;5030477;28;20540;-57
2023/09/07 10:48:03;;;;;;;20.95;16.02;;;;;;;;;;5013685;28;20217;-57
2023/09/07 10:50:30;;;;;;;21.52;16.02;;;;;;;;;;5013645;28;20435;-58
2023/09/07 10:52:56;;;;;;;18.92;16.40;;;;;;;;;;5031004;28;20106;-54
2023/09/07 10:55:22;;;;;;;20.95;16.90;;;;;;;;;;5029933;28;20069;-57
2023/09/07 10:57:49;;;;;;;21.05;15.82;;;;;;;;;;5055837;28;20497;-60
2023/09/07 11:00:16;;;;;;;19.60;16.52;;;;;;;;;;5059954;28;20099;-55
2023/09/07 11:02:42;;;;;;;19.35;16.08;;;;;;;;;;5062302;28;20507;-55
2023/09/07 11:05:09;;;;;;;19.58;16.10;;;;;;;;;;4704185;28;10000408;-56
2023/09/07 11:07:37;;;;;;;21.25;15.90;;;;;;;;;;5023234;28;20120;-59
2023/09/07 11:10:06;;;;;;;20.60;15.90;;;;;;;;;;5028040;28;20021;-59
2023/09/07 11:12:36;;;;;;;19.25;15.48;;;;;;;;;;5027476;28;20060;-59
2023/09/07 11:15:02;;;;;;;17.83;15.27;;;;;;;;;;5042223;28;20029;-56
2023/09/07 11:17:29;;;;;;;18.90;15.82;;;;;;;;;;5046346;28;20111;-59
2023/09/07 11:19:55;;;;;;;19.35;15.30;;;;;;;;;;5047140;28;20108;-55
2023/09/07 11:22:22;;;;;;;20.48;15.90;;;;;;;;;;5041024;28;20448;-56
2023/09/07 11:24:48;;;;;;;19.52;15.93;;;;;;;;;;5026277;28;20104;-57
2023/09/07 11:27:14;;;;;;;19.20;15.57;;;;;;;;;;5032938;28;20113;-55
2023/09/07 11:29:40;;;;;;;18.65;15.90;;;;;;;;;;5046756;28;20028;-58
2023/09/07 11:32:12;;;;;;;19.75;16.15;;;;;;;;;;5046893;28;20044;-55
2023/09/07 11:34:52;;;;;;;20.10;16.20;;;;;;;;;;5046207;28;20507;-58
2023/09/07 11:37:19;;;;;;;18.85;15.93;;;;;;;;;;5047008;28;20491;-56
2023/09/07 11:39:45;;;;;;;18.33;16.33;;;;;;;;;;5038577;28;20644;-56
2023/09/07 11:42:11;;;;;;;18.17;15.98;;;;;;;;;;5026852;28;20030;-60
2023/09/07 11:44:37;;;;;;;18.73;16.27;;;;;;;;;;5026547;28;20068;-54
2023/09/07 11:47:04;;;;;;;19.48;16.88;;;;;;;;;;5026901;28;20393;-51
2023/09/07 11:49:31;;;;;;;18.35;15.90;;;;;;;;;;5009322;28;20469;-53
2023/09/07 11:51:57;;;;;;;19.00;16.50;;;;;;;;;;5027412;28;20104;-60
2023/09/07 11:54:23;;;;;;;20.45;17.60;;;;;;;;;;5009246;28;20071;-57
2023/09/07 11:56:49;;;;;;;21.05;17.02;;;;;;;;;;5052439;23;20038;-56
2023/09/07 11:59:17;;;;;;;21.38;17.58;;;;;;;;;;5082657;28;20051;-59
2023/09/07 12:01:43;;;;;;;19.20;16.80;;;;;;;;;;5085868;28;20078;-59
2023/09/07 12:04:09;;;;;;;19.20;16.95;;;;;;;;;;5088100;28;20036;-57
2023/09/07 12:06:42;;;;;;;20.17;17.18;;;;;;;;;;4979824;28;10001273;-62
2023/09/07 12:09:11;;;;;;;19.10;17.10;;;;;;;;;;5066126;28;20308;-56
2023/09/07 12:11:37;;;;;;;19.20;17.10;;;;;;;;;;5066502;28;20035;-60
2023/09/07 12:14:04;;;;;;;19.17;17.00;;;;;;;;;;5066204;28;20048;-56
2023/09/07 12:16:30;;;;;;;20.65;16.88;;;;;;;;;;5073075;28;20094;-59
2023/09/07 12:18:56;;;;;;;19.75;17.60;;;;;;;;;;5077093;28;20062;-61
2023/09/07 12:21:22;;;;;;;21.25;17.55;;;;;;;;;;5070386;28;20048;-62
2023/09/07 12:23:48;;;;;;;19.50;17.50;;;;;;;;;;5069285;28;20025;-60
2023/09/07 12:26:14;;;;;;;19.25;17.15;;;;;;;;;;5067439;28;20497;-59
2023/09/07 12:28:41;;;;;;;20.50;16.60;;;;;;;;;;5063066;28;20024;-57
2023/09/07 12:31:07;;;;;;;19.83;17.27;;;;;;;;;;5068977;28;20020;-58
2023/09/07 12:33:33;;;;;;;18.85;16.85;;;;;;;;;;5067832;28;20031;-57
2023/09/07 12:35:59;;;;;;;21.05;17.15;;;;;;;;;;5067989;28;20033;-57
2023/09/07 12:38:28;;;;;;;19.23;17.20;;;;;;;;;;5070155;28;20111;-59
2023/09/07 12:40:54;;;;;;;19.20;17.00;;;;;;;;;;5070478;28;20036;-57
2023/09/07 12:43:20;;;;;;;20.17;17.15;;;;;;;;;;5070526;28;20030;-57
2023/09/07 12:45:46;;;;;;;19.15;17.08;;;;;;;;;;5070109;28;20115;-61
2023/09/07 12:48:12;;;;;;;20.02;17.30;;;;;;;;;;5072187;28;20148;-60
2023/09/07 12:50:42;;;;;;;18.83;16.80;;;;;;;;;;5069918;28;20107;-61
2023/09/07 12:53:08;;;;;;;19.63;17.52;;;;;;;;;;5070830;28;20091;-59
2023/09/07 12:55:35;;;;;;;21.20;17.20;;;;;;;;;;5069948;28;20029;-61
2023/09/07 12:58:01;;;;;;;22.20;17.25;;;;;;;;;;5069982;28;20393;-56
2023/09/07 13:00:28;;;;;;;19.88;17.70;;;;;;;;;;5071346;28;20050;-60
2023/09/07 13:02:54;;;;;;;20.48;17.30;;;;;;;;;;5071219;28;20025;-60
2023/09/07 13:05:20;;;;;;;18.90;16.90;;;;;;;;;;5071090;28;20047;-57
2023/09/07 13:07:47;;;;;;;19.95;17.42;;;;;;;;;;5071899;28;20048;-59
2023/09/07 13:10:13;;;;;;;21.08;17.20;;;;;;;;;;5071779;28;20168;-60
2023/09/07 13:12:39;;;;;;;20.10;17.98;;;;;;;;;;5071746;28;20234;-59
2023/09/07 13:15:05;;;;;;;20.95;17.42;;;;;;;;;;5070427;28;20027;-61
2023/09/07 13:17:31;;;;;;;20.00;17.90;;;;;;;;;;5071778;28;20029;-57
2023/09/07 13:19:57;;;;;;;20.15;18.00;;;;;;;;;;5072046;28;20032;-57
2023/09/07 13:22:23;;;;;;;20.00;17.48;;;;;;;;;;5071966;28;20043;-59
2023/09/07 13:24:49;;;;;;;20.83;17.23;;;;;;;;;;5069510;28;20032;-60
2023/09/07 13:27:16;;;;;;;22.10;19.90;;;;;;;;;;5070121;28;20195;-60
2023/09/07 13:29:42;;;;;;;19.30;17.20;;;;;;;;;;5071633;28;20063;-56
2023/09/07 13:32:08;;;;;;;20.70;17.17;;;;;;;;;;5065277;28;20700;-58
2023/09/07 13:34:34;;;;;;;22.08;17.40;;;;;;;;;;5062318;28;20056;-59
2023/09/07 13:37:00;;;;;;;19.40;16.60;;;;;;;;;;5071195;28;20024;-60
2023/09/07 13:39:26;;;;;;;20.88;17.27;;;;;;;;;;5071305;28;20426;-58
2023/09/07 13:41:52;;;;;;;19.38;17.30;;;;;;;;;;5069504;28;20115;-56
2023/09/07 13:44:18;;;;;;;21.23;17.38;;;;;;;;;;5070500;28;20069;-60
2023/09/07 13:46:44;;;;;;;18.98;16.98;;;;;;;;;;5071319;28;20103;-60
2023/09/07 13:49:11;;;;;;;19.10;17.10;;;;;;;;;;5070020;28;20017;-61
2023/09/07 13:51:39;;;;;;;20.02;17.25;;;;;;;;;;5070589;28;20031;-59
2023/09/07 13:54:06;;;;;;;19.05;16.75;;;;;;;;;;4348654;28;10000618;-57
2023/09/07 13:56:33;;;;;;;18.90;16.80;;;;;;;;;;5068115;28;20131;-59
2023/09/07 13:58:59;;;;;;;19.33;17.20;;;;;;;;;;5067906;28;20123;-61
2023/09/07 14:01:25;;;;;;;20.13;17.77;;;;;;;;;;5068069;28;20368;-61
2023/09/07 14:03:51;;;;;;;19.50;16.90;;;;;;;;;;5059783;28;20053;-59
2023/09/07 14:06:17;;;;;;;18.90;16.60;;;;;;;;;;5050118;28;20031;-62
2023/09/07 14:08:46;;;;;;;22.27;16.83;;;;;;;;;;5068011;28;20676;-58
2023/09/07 14:11:12;;;;;;;19.05;16.80;;;;;;;;;;5066274;28;20032;-60
2023/09/07 14:13:38;;;;;;;20.27;17.55;;;;;;;;;;5067150;28;20024;-60
2023/09/07 14:16:04;;;;;;;19.20;17.20;;;;;;;;;;5067044;28;20028;-58